createdAt,value
2023-01-21T00:01:02.991Z,70.07
2023-01-21T00:03:29.351Z,67.71
2023-01-21T00:05:55.673Z,65.70
2023-01-21T00:08:22.041Z,65.48
2023-01-21T00:10:48.350Z,65.69
2023-01-21T00:13:14.647Z,66.73
2023-01-21T00:15:41.023Z,69.20
2023-01-21T00:18:07.395Z,68.33
2023-01-21T00:20:33.688Z,68.21
2023-01-21T00:22:59.992Z,68.34
2023-01-21T00:25:26.273Z,68.39
2023-01-21T00:27:52.560Z,67.29
2023-01-21T00:30:19.171Z,68.63
2023-01-21T00:32:45.583Z,69.29
2023-01-21T00:35:11.888Z,68.06
2023-01-21T00:37:38.238Z,65.77
2023-01-21T00:40:04.532Z,66.04
2023-01-21T00:42:30.814Z,65.79
2023-01-21T00:44:57.151Z,65.58
2023-01-21T00:47:23.462Z,68.23
2023-01-21T00:49:49.825Z,67.30
2023-01-21T00:52:16.137Z,68.19
2023-01-21T00:54:42.549Z,65.92
2023-01-21T00:57:08.842Z,68.51
2023-01-21T00:59:35.273Z,67.16
2023-01-21T01:02:01.572Z,67.21
2023-01-21T01:04:27.879Z,67.38
2023-01-21T01:06:54.304Z,68.62
2023-01-21T01:09:20.625Z,67.31
2023-01-21T01:11:46.923Z,65.80
2023-01-21T01:14:13.263Z,66.50
2023-01-21T01:16:39.569Z,70.03
2023-01-21T01:19:05.902Z,68.35
2023-01-21T01:21:32.246Z,66.87
2023-01-21T01:23:58.526Z,67.32
2023-01-21T01:26:24.834Z,67.03
2023-01-21T01:28:51.139Z,68.82
2023-01-21T01:31:17.623Z,67.81
2023-01-21T01:33:43.985Z,68.08
2023-01-21T01:36:10.290Z,67.12
2023-01-21T01:38:36.584Z,66.73
2023-01-21T01:41:02.917Z,67.35
2023-01-21T01:43:29.232Z,66.84
2023-01-21T01:45:55.533Z,70.29
2023-01-21T01:48:21.818Z,68.16
2023-01-21T01:50:48.133Z,70.05
2023-01-21T01:53:14.441Z,67.10
2023-01-21T01:55:40.722Z,68.25
2023-01-21T01:58:07.058Z,69.40
2023-01-21T02:00:33.352Z,71.78
2023-01-21T02:02:59.746Z,67.30
2023-01-21T02:05:27.848Z,67.35
2023-01-21T02:07:54.242Z,68.21
2023-01-21T02:10:20.538Z,66.08
2023-01-21T02:12:46.844Z,69.13
2023-01-21T02:15:13.135Z,66.51
2023-01-21T02:17:39.419Z,65.42
2023-01-21T02:20:05.727Z,64.56
2023-01-21T02:22:32.310Z,63.56
2023-01-21T02:24:58.709Z,64.67
2023-01-21T02:27:30.706Z,64.84
2023-01-21T02:29:57.538Z,65.06
2023-01-21T02:32:23.846Z,63.67
2023-01-21T02:34:50.170Z,60.34
2023-01-21T02:37:16.465Z,60.43
2023-01-21T02:39:42.788Z,59.24
2023-01-21T02:42:09.123Z,58.95
2023-01-21T02:44:35.536Z,58.83
2023-01-21T02:47:01.852Z,58.73
2023-01-21T02:49:28.153Z,58.81
2023-01-21T02:51:54.530Z,58.78
2023-01-21T02:54:20.828Z,58.74
2023-01-21T02:56:47.135Z,58.68
2023-01-21T02:59:13.428Z,59.27
2023-01-21T03:01:39.737Z,59.31
2023-01-21T03:04:06.051Z,59.62
2023-01-21T03:06:32.340Z,59.99
2023-01-21T03:08:58.641Z,59.45
2023-01-21T03:11:24.988Z,59.75
2023-01-21T03:13:51.290Z,59.14
2023-01-21T03:16:17.639Z,60.63
2023-01-21T03:18:44.000Z,60.38
2023-01-21T03:21:10.285Z,60.75
2023-01-21T03:23:36.570Z,60.94
2023-01-21T03:26:02.887Z,61.14
2023-01-21T03:28:29.217Z,61.68
2023-01-21T03:30:55.585Z,61.48
2023-01-21T03:33:21.954Z,62.14
2023-01-21T03:35:48.233Z,60.85
2023-01-21T03:38:14.538Z,62.40
2023-01-21T03:40:40.850Z,61.94
2023-01-21T03:43:07.142Z,61.79
2023-01-21T03:45:33.543Z,62.24
2023-01-21T03:47:59.863Z,61.66
2023-01-21T03:50:26.167Z,61.36
2023-01-21T03:52:52.463Z,61.32
2023-01-21T03:55:18.833Z,61.60
2023-01-21T03:57:45.129Z,62.29
2023-01-21T04:00:11.439Z,60.94
2023-01-21T04:02:37.756Z,62.35
2023-01-21T04:05:04.040Z,62.69
2023-01-21T04:07:30.334Z,61.69
2023-01-21T04:09:56.637Z,63.01
2023-01-21T04:12:22.983Z,64.04
2023-01-21T04:14:49.284Z,62.97
2023-01-21T04:17:15.595Z,63.66
2023-01-21T04:19:41.872Z,63.34
2023-01-21T04:22:08.158Z,62.79
2023-01-21T04:24:34.878Z,63.63
2023-01-21T04:27:01.179Z,63.53
2023-01-21T04:29:27.475Z,64.28
2023-01-21T04:31:53.894Z,63.83
2023-01-21T04:34:20.237Z,64.34
2023-01-21T04:36:46.535Z,65.06
2023-01-21T04:39:12.843Z,64.09
2023-01-21T04:41:39.271Z,65.30
2023-01-21T04:44:05.604Z,64.77
2023-01-21T04:46:31.924Z,62.95
2023-01-21T04:48:58.203Z,63.64
2023-01-21T04:51:24.489Z,63.97
2023-01-21T04:53:50.811Z,64.47
2023-01-21T04:56:17.101Z,64.44
2023-01-21T04:58:43.387Z,65.47
2023-01-21T05:01:09.789Z,64.46
2023-01-21T05:03:36.326Z,65.25
2023-01-21T05:06:03.099Z,65.65
2023-01-21T05:08:29.784Z,65.66
2023-01-21T05:10:56.323Z,64.70
2023-01-21T05:13:22.648Z,64.20
2023-01-21T05:15:49.026Z,64.86
2023-01-21T05:18:15.601Z,64.90
2023-01-21T05:20:41.912Z,64.48
2023-01-21T05:23:08.277Z,64.43
2023-01-21T05:25:34.648Z,64.24
2023-01-21T05:28:00.982Z,67.23
2023-01-21T05:30:27.708Z,67.99
2023-01-21T05:32:54.027Z,70.41
2023-01-21T05:35:20.574Z,70.29
2023-01-21T05:37:47.031Z,69.16
2023-01-21T05:40:13.333Z,68.97
2023-01-21T05:42:39.760Z,69.62
2023-01-21T05:45:06.062Z,70.73
2023-01-21T05:47:32.357Z,68.29
2023-01-21T05:49:58.642Z,71.17
2023-01-21T05:52:24.949Z,69.91
2023-01-21T05:55:01.481Z,68.01
2023-01-21T05:57:28.715Z,67.61
2023-01-21T05:59:55.005Z,68.16
2023-01-21T06:02:21.357Z,67.52
2023-01-21T06:04:47.707Z,66.61
2023-01-21T06:07:13.998Z,68.61
2023-01-21T06:09:40.309Z,70.63
2023-01-21T06:12:06.622Z,70.90
2023-01-21T06:14:32.903Z,70.26
2023-01-21T06:16:59.192Z,69.24
2023-01-21T06:19:25.503Z,68.10
2023-01-21T06:21:51.797Z,68.27
2023-01-21T06:24:18.096Z,68.27
2023-01-21T06:26:44.424Z,69.38
2023-01-21T06:29:10.830Z,68.86
2023-01-21T06:31:37.171Z,67.62
2023-01-21T06:34:03.610Z,69.74
2023-01-21T06:36:29.904Z,69.29
2023-01-21T06:38:56.213Z,69.01
2023-01-21T06:41:22.495Z,69.92
2023-01-21T06:43:48.779Z,68.38
2023-01-21T06:46:15.114Z,67.36
2023-01-21T06:48:41.462Z,66.18
2023-01-21T06:51:07.776Z,65.44
2023-01-21T06:53:34.075Z,67.65
2023-01-21T06:56:00.384Z,66.49
2023-01-21T06:58:26.740Z,67.88
2023-01-21T07:00:53.024Z,68.49
2023-01-21T07:03:19.328Z,68.56
2023-01-21T07:05:45.604Z,68.65
2023-01-21T07:08:11.910Z,70.47
2023-01-21T07:10:38.261Z,71.43
2023-01-21T07:13:04.563Z,71.11
2023-01-21T07:15:30.860Z,71.85
2023-01-21T07:17:57.173Z,71.98
2023-01-21T07:20:23.474Z,72.57
2023-01-21T07:22:49.759Z,71.27
2023-01-21T07:25:16.275Z,72.10
2023-01-21T07:27:42.820Z,72.15
2023-01-21T07:30:09.116Z,71.87
2023-01-21T07:32:35.437Z,72.00
2023-01-21T07:35:01.768Z,70.52
2023-01-21T07:37:28.063Z,70.35
2023-01-21T07:39:54.749Z,71.41
2023-01-21T07:42:21.068Z,70.99
2023-01-21T07:44:47.364Z,70.78
2023-01-21T07:47:13.665Z,71.29
2023-01-21T07:49:39.963Z,70.64
2023-01-21T07:52:06.251Z,68.65
2023-01-21T07:54:32.576Z,70.45
2023-01-21T07:56:58.867Z,70.83
2023-01-21T07:59:25.190Z,71.71
2023-01-21T08:01:51.595Z,70.80
2023-01-21T08:04:17.966Z,70.22
2023-01-21T08:06:44.255Z,70.29
2023-01-21T08:09:10.556Z,70.33
2023-01-21T08:11:36.854Z,69.79
2023-01-21T08:14:03.155Z,69.91
2023-01-21T08:16:29.606Z,71.33
2023-01-21T08:18:55.941Z,71.20
2023-01-21T08:21:22.227Z,71.42
2023-01-21T08:23:48.541Z,72.11
2023-01-21T08:26:14.844Z,72.49
2023-01-21T08:28:41.159Z,72.36
2023-01-21T08:31:07.572Z,71.81
2023-01-21T08:33:33.915Z,73.41
2023-01-21T08:36:00.200Z,73.51
2023-01-21T08:38:26.512Z,75.49
2023-01-21T08:40:52.823Z,76.26
2023-01-21T08:43:19.120Z,75.68
2023-01-21T08:45:45.482Z,75.12
2023-01-21T08:48:11.794Z,73.88
2023-01-21T08:50:38.097Z,72.08
2023-01-21T08:53:04.408Z,71.67
2023-01-21T08:55:30.703Z,71.29
2023-01-21T08:57:57.002Z,71.57
2023-01-21T09:00:23.320Z,71.18
2023-01-21T09:02:51.537Z,69.43
2023-01-21T09:05:18.351Z,69.31
2023-01-21T09:07:44.776Z,68.13
2023-01-21T09:10:11.074Z,67.98
2023-01-21T09:12:37.367Z,66.45
2023-01-21T09:15:03.676Z,66.35
2023-01-21T09:17:29.966Z,66.18
2023-01-21T09:19:56.250Z,65.88
2023-01-21T09:22:22.631Z,64.81
2023-01-21T09:24:48.918Z,63.63
2023-01-21T09:27:15.210Z,64.08
2023-01-21T09:29:41.550Z,64.24
2023-01-21T09:32:07.853Z,64.76
2023-01-21T09:34:35.838Z,63.98
2023-01-21T09:37:02.280Z,64.17
2023-01-21T09:39:28.570Z,62.83
2023-01-21T09:41:54.863Z,62.95
2023-01-21T09:44:21.194Z,63.72
2023-01-21T09:46:47.506Z,63.52
2023-01-21T09:49:13.811Z,63.88
2023-01-21T09:51:40.159Z,63.31
2023-01-21T09:54:06.447Z,62.29
2023-01-21T09:56:32.763Z,61.61
2023-01-21T09:58:59.075Z,61.77
2023-01-21T10:01:25.449Z,61.77
2023-01-21T10:03:51.786Z,62.72
2023-01-21T10:06:18.108Z,63.09
2023-01-21T10:08:44.400Z,61.74
2023-01-21T10:11:10.692Z,60.64
2023-01-21T10:13:37.003Z,60.66
2023-01-21T10:16:03.302Z,59.71
2023-01-21T10:18:30.879Z,60.31
2023-01-21T10:20:57.322Z,60.14
2023-01-21T10:23:23.616Z,59.86
2023-01-21T10:25:49.897Z,60.42
2023-01-21T10:28:16.242Z,60.63
2023-01-21T10:30:42.642Z,60.97
2023-01-21T10:33:08.952Z,60.37
2023-01-21T10:35:35.266Z,60.28
2023-01-21T10:38:01.558Z,60.04
2023-01-21T10:40:27.849Z,60.17
2023-01-21T10:42:54.154Z,60.56
2023-01-21T10:45:20.455Z,61.37
2023-01-21T10:47:46.755Z,60.84
2023-01-21T10:50:13.080Z,60.86
2023-01-21T10:52:39.376Z,60.21
2023-01-21T10:55:05.676Z,61.99
2023-01-21T10:57:31.987Z,62.30
2023-01-21T10:59:58.282Z,63.23
2023-01-21T11:02:24.591Z,65.92
2023-01-21T11:04:50.933Z,66.49
2023-01-21T11:07:17.217Z,62.77
2023-01-21T11:09:43.512Z,61.60
2023-01-21T11:12:09.829Z,64.57
2023-01-21T11:14:36.211Z,66.94
2023-01-21T11:17:02.957Z,66.21
2023-01-21T11:19:29.272Z,65.34
2023-01-21T11:21:55.560Z,65.36
2023-01-21T11:24:21.846Z,63.71
2023-01-21T11:26:48.164Z,64.98
2023-01-21T11:29:14.472Z,66.01
2023-01-21T11:31:40.835Z,65.82
2023-01-21T11:34:07.273Z,65.17
2023-01-21T11:36:33.574Z,68.06
2023-01-21T11:38:59.864Z,66.39
2023-01-21T11:41:26.181Z,65.10
2023-01-21T11:43:52.483Z,65.24
2023-01-21T11:46:18.816Z,66.56
2023-01-21T11:48:45.152Z,67.55
2023-01-21T11:51:11.568Z,66.01
2023-01-21T11:53:37.879Z,68.62
2023-01-21T11:56:04.188Z,67.59
2023-01-21T11:58:30.505Z,67.77
2023-01-21T12:00:56.811Z,67.46
2023-01-21T12:03:23.159Z,66.28
2023-01-21T12:05:49.480Z,66.37
2023-01-21T12:08:15.794Z,66.66
2023-01-21T12:10:42.108Z,66.56
2023-01-21T12:13:08.392Z,66.42
2023-01-21T12:15:34.761Z,66.69
2023-01-21T12:18:01.083Z,65.71
2023-01-21T12:20:27.367Z,66.69
2023-01-21T12:22:53.668Z,68.76
2023-01-21T12:25:19.990Z,70.14
2023-01-21T12:27:46.288Z,68.21
2023-01-21T12:30:12.579Z,67.27
2023-01-21T12:32:38.890Z,68.29
2023-01-21T12:35:05.183Z,65.76
2023-01-21T12:37:31.465Z,65.38
2023-01-21T12:39:57.809Z,64.77
2023-01-21T12:42:24.112Z,65.45
2023-01-21T12:44:50.408Z,66.45
2023-01-21T12:47:16.722Z,66.72
2023-01-21T12:49:43.024Z,68.01
2023-01-21T12:52:09.341Z,67.91
2023-01-21T12:54:35.644Z,66.88
2023-01-21T12:57:01.941Z,64.87
2023-01-21T12:59:29.920Z,65.57
2023-01-21T13:01:57.546Z,63.52
2023-01-21T13:04:23.876Z,64.47
2023-01-21T13:06:54.124Z,63.91
2023-01-21T13:09:20.851Z,64.50
2023-01-21T13:11:47.142Z,65.18
2023-01-21T13:14:13.431Z,63.75
2023-01-21T13:16:39.842Z,63.62
2023-01-21T13:19:06.158Z,62.56
2023-01-21T13:21:32.458Z,61.95
2023-01-21T13:23:58.758Z,63.26
2023-01-21T13:26:25.043Z,61.97
2023-01-21T13:28:51.328Z,62.21
2023-01-21T13:31:17.736Z,64.63
2023-01-21T13:33:44.082Z,65.35
2023-01-21T13:36:10.385Z,66.45
2023-01-21T13:38:36.698Z,63.72
2023-01-21T13:41:02.982Z,65.25
2023-01-21T13:43:29.274Z,65.22
2023-01-21T13:45:55.776Z,64.99
2023-01-21T13:48:22.212Z,64.33
2023-01-21T13:50:48.592Z,65.11
2023-01-21T13:53:14.924Z,65.29
2023-01-21T13:55:41.324Z,65.95
2023-01-21T13:58:07.624Z,67.58
2023-01-21T14:00:33.991Z,64.98
2023-01-21T14:03:00.301Z,65.30
2023-01-21T14:05:26.584Z,65.32
2023-01-21T14:07:52.917Z,65.37
2023-01-21T14:10:19.579Z,64.55
2023-01-21T14:12:46.043Z,64.96
2023-01-21T14:15:12.344Z,62.94
2023-01-21T14:17:38.648Z,60.88
2023-01-21T14:20:05.018Z,57.87
2023-01-21T14:22:31.314Z,57.28
2023-01-21T14:24:57.599Z,55.88
2023-01-21T14:27:23.937Z,56.84
2023-01-21T14:29:50.233Z,55.99
2023-01-21T14:32:16.502Z,55.81
2023-01-21T14:34:42.781Z,56.47
2023-01-21T14:37:09.077Z,57.29
2023-01-21T14:39:35.370Z,57.29
2023-01-21T14:42:01.652Z,56.83
2023-01-21T14:44:27.951Z,57.44
2023-01-21T14:46:54.237Z,57.54
2023-01-21T14:49:20.524Z,57.86
2023-01-21T14:51:46.872Z,57.57
2023-01-21T14:54:13.157Z,57.93
2023-01-21T14:56:39.444Z,57.45
2023-01-21T14:59:05.750Z,59.15
2023-01-21T15:01:32.088Z,58.55
2023-01-21T15:03:58.430Z,58.41
2023-01-21T15:06:24.738Z,58.55
2023-01-21T15:08:51.009Z,59.25
2023-01-21T15:11:17.336Z,59.91
2023-01-21T15:13:43.639Z,59.62
2023-01-21T15:16:09.995Z,59.35
2023-01-21T15:18:36.306Z,60.22
2023-01-21T15:21:02.615Z,60.69
2023-01-21T15:23:29.024Z,60.57
2023-01-21T15:25:55.312Z,59.82
2023-01-21T15:28:21.625Z,61.36
2023-01-21T15:30:58.310Z,61.15
2023-01-21T15:33:25.224Z,61.64
2023-01-21T15:35:51.556Z,60.79
2023-01-21T15:38:17.833Z,60.66
2023-01-21T15:40:44.171Z,61.94
2023-01-21T15:43:10.649Z,61.90
2023-01-21T15:45:38.170Z,61.15
2023-01-21T15:48:04.497Z,61.86
2023-01-21T15:50:30.784Z,61.72
2023-01-21T15:52:57.070Z,62.35
2023-01-21T15:55:23.418Z,62.46
2023-01-21T15:57:49.717Z,63.65
2023-01-21T16:00:16.013Z,62.88
2023-01-21T16:02:42.365Z,63.46
2023-01-21T16:05:08.767Z,64.64
2023-01-21T16:07:35.064Z,64.56
2023-01-21T16:10:01.372Z,64.54
2023-01-21T16:12:27.662Z,63.73
2023-01-21T16:14:53.997Z,64.31
2023-01-21T16:17:20.319Z,64.76
2023-01-21T16:19:46.608Z,66.23
2023-01-21T16:22:12.902Z,66.10
2023-01-21T16:24:39.244Z,65.36
2023-01-21T16:27:05.541Z,66.37
2023-01-21T16:29:31.836Z,66.93
2023-01-21T16:31:58.195Z,66.67
2023-01-21T16:34:24.553Z,67.70
2023-01-21T16:36:50.846Z,67.75
2023-01-21T16:39:17.164Z,68.35
2023-01-21T16:41:43.457Z,69.11
2023-01-21T16:44:09.739Z,71.76
2023-01-21T16:46:36.177Z,70.69
2023-01-21T16:49:02.509Z,71.50
2023-01-21T16:51:28.823Z,72.45
2023-01-21T16:53:55.195Z,73.21
2023-01-21T16:56:21.482Z,73.77
2023-01-21T16:58:47.776Z,75.20
2023-01-21T17:01:14.178Z,75.14
2023-01-21T17:03:40.515Z,76.73
2023-01-21T17:06:06.813Z,76.69
2023-01-21T17:08:33.137Z,78.99
2023-01-21T17:10:59.416Z,77.32
2023-01-21T17:13:25.705Z,78.48
2023-01-21T17:15:52.102Z,79.72
2023-01-21T17:18:18.438Z,80.87
2023-01-21T17:20:44.764Z,79.61
2023-01-21T17:23:11.286Z,80.29
2023-01-21T17:25:37.592Z,80.29
2023-01-21T17:28:03.919Z,79.92
2023-01-21T17:30:30.317Z,78.90
2023-01-21T17:32:56.694Z,78.60
2023-01-21T17:35:23.767Z,78.78
2023-01-21T17:37:50.266Z,77.52
2023-01-21T17:40:16.564Z,77.01
2023-01-21T17:42:42.846Z,76.97
2023-01-21T17:45:09.218Z,77.60
2023-01-21T17:47:42.477Z,78.50
2023-01-21T17:50:20.521Z,79.23
2023-01-21T17:52:46.814Z,77.88
2023-01-21T17:55:13.108Z,76.29
2023-01-21T17:57:39.418Z,75.42
2023-01-21T18:00:05.724Z,73.54
2023-01-21T18:02:32.110Z,73.44
2023-01-21T18:04:58.468Z,73.34
2023-01-21T18:07:24.761Z,70.46
2023-01-21T18:09:51.248Z,69.27
2023-01-21T18:12:17.562Z,66.49
2023-01-21T18:14:43.863Z,66.63
2023-01-21T18:17:10.691Z,65.51
2023-01-21T18:19:37.041Z,66.43
2023-01-21T18:22:03.376Z,63.49
2023-01-21T18:24:29.655Z,63.16
2023-01-21T18:26:55.960Z,63.15
2023-01-21T18:29:22.246Z,62.09
2023-01-21T18:31:48.568Z,62.96
2023-01-21T18:34:14.884Z,63.20
2023-01-21T18:36:41.165Z,64.13
2023-01-21T18:39:09.118Z,62.86
2023-01-21T18:41:35.436Z,63.66
2023-01-21T18:44:01.724Z,64.20
2023-01-21T18:46:28.099Z,63.83
2023-01-21T18:48:54.448Z,64.37
2023-01-21T18:51:20.789Z,64.96
2023-01-21T18:53:47.114Z,63.66
2023-01-21T18:56:13.433Z,65.17
2023-01-21T18:58:39.735Z,64.36
2023-01-21T19:01:20.826Z,64.33
2023-01-21T19:03:48.710Z,64.97
2023-01-21T19:06:15.015Z,64.29
2023-01-21T19:08:41.310Z,64.67
2023-01-21T19:11:07.661Z,64.93
2023-01-21T19:13:33.978Z,64.44
2023-01-21T19:16:00.385Z,64.50
2023-01-21T19:18:26.726Z,65.72
2023-01-21T19:20:53.015Z,65.03
2023-01-21T19:23:19.297Z,65.92
2023-01-21T19:25:45.637Z,65.22
2023-01-21T19:28:11.943Z,65.68
2023-01-21T19:30:38.258Z,65.96
2023-01-21T19:33:04.568Z,65.27
2023-01-21T19:35:30.850Z,65.83
2023-01-21T19:37:57.347Z,66.32
2023-01-21T19:40:23.713Z,65.33
2023-01-21T19:42:50.013Z,66.28
2023-01-21T19:45:16.306Z,67.28
2023-01-21T19:47:42.616Z,67.00
2023-01-21T19:50:08.912Z,67.07
2023-01-21T19:52:35.198Z,66.41
2023-01-21T19:55:01.520Z,67.62
2023-01-21T19:57:27.803Z,66.62
2023-01-21T19:59:54.097Z,67.45
2023-01-21T20:02:20.446Z,66.74
2023-01-21T20:04:46.754Z,66.89
2023-01-21T20:07:13.040Z,66.86
2023-01-21T20:09:39.353Z,66.53
2023-01-21T20:12:06.153Z,66.04
2023-01-21T20:14:32.680Z,67.37
2023-01-21T20:16:59.076Z,67.30
2023-01-21T20:19:25.453Z,67.15
2023-01-21T20:22:01.152Z,66.31
2023-01-21T20:24:28.306Z,68.06
2023-01-21T20:26:54.656Z,68.39
2023-01-21T20:29:21.046Z,66.35
2023-01-21T20:31:47.437Z,67.83
2023-01-21T20:34:13.779Z,66.92
2023-01-21T20:36:40.145Z,66.72
2023-01-21T20:39:06.510Z,67.45
2023-01-21T20:41:32.849Z,67.00
2023-01-21T20:43:59.148Z,66.88
2023-01-21T20:46:25.454Z,67.04
2023-01-21T20:48:51.755Z,67.00
2023-01-21T20:51:18.190Z,66.57
2023-01-21T20:53:44.536Z,66.90
2023-01-21T20:56:10.847Z,66.76
2023-01-21T20:58:37.150Z,67.06
2023-01-21T21:01:03.542Z,67.16
2023-01-21T21:03:29.853Z,66.83
2023-01-21T21:05:56.148Z,66.99
2023-01-21T21:08:22.455Z,65.79
2023-01-21T21:10:48.745Z,66.18
2023-01-21T21:13:15.054Z,66.07
2023-01-21T21:15:41.412Z,67.85
2023-01-21T21:18:07.710Z,66.82
2023-01-21T21:20:33.996Z,66.54
2023-01-21T21:23:00.353Z,66.64
2023-01-21T21:25:26.646Z,67.01
2023-01-21T21:27:52.941Z,67.29
2023-01-21T21:30:19.285Z,66.74
2023-01-21T21:32:45.575Z,66.95
2023-01-21T21:35:11.877Z,66.54
2023-01-21T21:37:38.433Z,65.81
2023-01-21T21:40:04.733Z,66.51
2023-01-21T21:42:37.878Z,66.37
2023-01-21T21:50:45.085Z,66.09
2023-01-21T21:53:11.418Z,67.20
2023-01-21T21:55:38.771Z,65.76
2023-01-21T21:58:05.827Z,65.24
2023-01-21T22:00:33.430Z,66.17
2023-01-21T22:03:01.201Z,65.57
2023-01-21T22:05:28.953Z,66.95
2023-01-21T22:07:59.062Z,65.84
2023-01-21T22:13:09.540Z,65.75
2023-01-21T22:15:35.864Z,67.22
2023-01-21T22:18:02.157Z,65.59
2023-01-21T22:20:28.463Z,66.00
2023-01-21T22:22:54.745Z,68.02
2023-01-21T22:25:21.047Z,65.05
2023-01-21T22:27:47.397Z,65.55
2023-01-21T22:30:13.692Z,66.52
2023-01-21T22:32:40.002Z,66.35
2023-01-21T22:35:06.329Z,66.09
2023-01-21T22:37:32.634Z,66.47
2023-01-21T22:39:58.928Z,67.81
2023-01-21T22:42:25.237Z,65.54
2023-01-21T22:44:51.532Z,64.48
2023-01-21T22:47:17.829Z,64.30
2023-01-21T22:49:44.139Z,66.08
2023-01-21T22:52:10.422Z,64.86
2023-01-21T22:54:36.724Z,64.89
2023-01-21T22:57:03.059Z,65.61
2023-01-21T22:59:29.357Z,65.85
2023-01-21T23:01:55.652Z,66.49
2023-01-21T23:04:21.971Z,67.25
2023-01-21T23:06:48.267Z,65.22
2023-01-21T23:09:14.606Z,66.00
2023-01-21T23:11:40.935Z,65.41
2023-01-21T23:14:07.252Z,66.12
2023-01-21T23:16:33.547Z,66.61
2023-01-21T23:18:59.869Z,66.11
2023-01-21T23:21:26.165Z,65.80
2023-01-21T23:23:54.965Z,65.74
2023-01-21T23:26:22.969Z,65.75
2023-01-21T23:28:51.375Z,65.79
2023-01-21T23:31:19.760Z,65.95
2023-01-21T23:33:47.578Z,66.47
2023-01-21T23:36:15.771Z,65.59
2023-01-21T23:38:43.998Z,65.83
2023-01-21T23:41:10.851Z,66.59
2023-01-21T23:43:39.872Z,66.20
2023-01-21T23:46:08.713Z,64.63
2023-01-21T23:48:36.751Z,63.85
2023-01-21T23:53:43.686Z,64.87
2023-01-21T23:56:09.968Z,65.21
2023-01-21T23:58:36.275Z,64.85
